createdAt,value
2022-08-24T00:01:06.429Z,96094.53
2022-08-24T00:06:12.187Z,96094.34
2022-08-24T00:11:13.852Z,96083.81
2022-08-24T00:16:16.534Z,96085.22
2022-08-24T00:21:19.403Z,96089.38
2022-08-24T00:26:28.962Z,96097.84
2022-08-24T00:31:31.128Z,96090.09
2022-08-24T00:36:34.059Z,96089.50
2022-08-24T00:41:39.695Z,96091.19
2022-08-24T00:46:59.056Z,96083.88
2022-08-24T00:52:12.752Z,96077.69
2022-08-24T00:57:19.269Z,96090.97
2022-08-24T01:02:26.482Z,96087.53
2022-08-24T01:07:30.972Z,96097.56
2022-08-24T01:12:34.533Z,96098.50
2022-08-24T01:17:55.748Z,96100.59
2022-08-24T01:23:36.666Z,96091.31
2022-08-24T01:28:41.140Z,96078.44
2022-08-24T01:33:43.183Z,96078.28
2022-08-24T01:38:46.645Z,96068.09
2022-08-24T01:43:48.320Z,96075.78
2022-08-24T01:48:50.102Z,96079.47
2022-08-24T01:53:51.867Z,96076.50
2022-08-24T01:58:54.097Z,96069.97
2022-08-24T02:03:58.697Z,96073.34
2022-08-24T02:09:01.266Z,96075.94
2022-08-24T02:14:04.079Z,96079.63
2022-08-24T02:19:08.824Z,96084.41
2022-08-24T02:24:10.766Z,96083.31
2022-08-24T02:29:12.928Z,96086.09
2022-08-24T02:34:14.718Z,96088.06
2022-08-24T02:39:16.453Z,96091.75
2022-08-24T02:44:21.501Z,96090.22
2022-08-24T02:49:24.026Z,96087.13
2022-08-24T02:54:25.977Z,96090.03
2022-08-24T02:59:27.693Z,96094.50
2022-08-24T03:04:29.850Z,96096.16
2022-08-24T03:09:31.609Z,96095.50
2022-08-24T03:14:35.612Z,96101.63
2022-08-24T03:19:37.438Z,96108.06
2022-08-24T03:24:41.306Z,96098.75
2022-08-24T03:29:43.069Z,96103.66
2022-08-24T03:34:45.893Z,96105.78
2022-08-24T03:39:48.318Z,96103.91
2022-08-24T03:44:50.114Z,96113.59
2022-08-24T03:49:53.802Z,96106.16
2022-08-24T03:54:55.695Z,96112.63
2022-08-24T03:59:57.709Z,96119.03
2022-08-24T04:04:59.638Z,96119.16
2022-08-24T04:10:01.848Z,96108.63
2022-08-24T04:15:05.133Z,96115.97
2022-08-24T04:20:07.894Z,96112.53
2022-08-24T04:25:13.591Z,96114.34
2022-08-24T04:30:15.278Z,96115.22
2022-08-24T04:35:41.201Z,96115.69
2022-08-24T04:40:45.379Z,96118.88
2022-08-24T04:45:50.540Z,96120.88
2022-08-24T04:50:53.760Z,96134.75
2022-08-24T04:55:55.444Z,96135.53
2022-08-24T05:00:57.422Z,96134.31
2022-08-24T05:05:59.761Z,96138.63
2022-08-24T05:11:07.492Z,96128.66
2022-08-24T05:16:12.773Z,96134.06
2022-08-24T05:21:19.324Z,96137.94
2022-08-24T05:26:26.322Z,96136.28
2022-08-24T05:31:31.499Z,96142.50
2022-08-24T05:36:38.811Z,96133.28
2022-08-24T05:41:44.595Z,96146.16
2022-08-24T05:46:58.440Z,96149.13
2022-08-24T05:52:00.273Z,96153.69
2022-08-24T05:57:04.638Z,96161.78
2022-08-24T06:02:11.663Z,96161.50
2022-08-24T06:07:14.553Z,96162.50
2022-08-24T06:12:20.958Z,96149.91
2022-08-24T06:17:23.254Z,96159.56
2022-08-24T06:22:26.515Z,96151.75
2022-08-24T06:27:29.507Z,96155.06
2022-08-24T06:32:33.336Z,96161.94
2022-08-24T06:37:35.276Z,96156.56
2022-08-24T06:42:37.288Z,96159.22
2022-08-24T06:47:50.887Z,96165.09
2022-08-24T06:52:54.067Z,96171.63
2022-08-24T06:57:55.784Z,96174.59
2022-08-24T07:02:57.513Z,96174.31
2022-08-24T07:07:59.845Z,96183.97
2022-08-24T07:13:01.653Z,96184.00
2022-08-24T07:18:03.527Z,96182.25
2022-08-24T07:23:06.400Z,96188.63
2022-08-24T07:28:10.218Z,96190.69
2022-08-24T07:33:14.830Z,96189.16
2022-08-24T07:38:16.694Z,96192.00
2022-08-24T07:43:18.530Z,96187.69
2022-08-24T07:48:20.251Z,96185.72
2022-08-24T07:53:27.858Z,96184.22
2022-08-24T07:58:35.533Z,96178.81
2022-08-24T08:03:38.264Z,96177.00
2022-08-24T08:08:41.505Z,96180.59
2022-08-24T08:18:56.525Z,96184.50
2022-08-24T08:24:20.682Z,96192.09
2022-08-24T08:29:31.529Z,96192.41
2022-08-24T08:34:33.605Z,96193.03
2022-08-24T08:39:35.688Z,96190.13
2022-08-24T08:45:00.427Z,96188.75
2022-08-24T08:50:25.854Z,96188.25
2022-08-24T08:55:32.607Z,96191.50
2022-08-24T09:00:50.440Z,96188.25
2022-08-24T09:06:35.330Z,96186.56
2022-08-24T09:11:52.208Z,96187.47
2022-08-24T09:17:20.337Z,96188.53
2022-08-24T09:22:22.141Z,96185.72
2022-08-24T09:27:33.036Z,96183.38
2022-08-24T09:33:06.434Z,96181.34
2022-08-24T09:38:35.509Z,96190.47
2022-08-24T09:43:58.360Z,96183.28
2022-08-24T09:49:33.488Z,96186.50
2022-08-24T09:55:04.908Z,96184.91
2022-08-24T10:00:17.111Z,96180.06
2022-08-24T10:05:33.494Z,96175.72
2022-08-24T10:10:58.934Z,96171.13
2022-08-24T10:16:17.083Z,96181.00
2022-08-24T10:21:40.062Z,96174.59
2022-08-24T10:26:57.038Z,96164.69
2022-08-24T10:32:17.542Z,96169.38
2022-08-24T10:38:23.109Z,96165.22
2022-08-24T10:43:53.418Z,96166.00
2022-08-24T10:49:11.495Z,96162.63
2022-08-24T10:54:19.548Z,96156.34
2022-08-24T11:00:01.891Z,96153.06
2022-08-24T11:05:09.367Z,96150.56
2022-08-24T11:10:24.043Z,96160.13
2022-08-24T11:15:29.657Z,96161.00
2022-08-24T11:20:40.634Z,96152.78
2022-08-24T11:25:53.355Z,96149.13
2022-08-24T11:30:55.087Z,96152.13
2022-08-24T11:35:57.988Z,96145.53
2022-08-24T11:41:14.625Z,96152.50
2022-08-24T11:46:52.165Z,96146.91
2022-08-24T11:52:38.356Z,96150.69
2022-08-24T11:57:55.185Z,96157.53
2022-08-24T12:03:25.011Z,96149.91
2022-08-24T12:08:44.800Z,96160.63
2022-08-24T12:13:57.338Z,96161.66
2022-08-24T12:19:11.833Z,96162.72
2022-08-24T12:24:41.298Z,96154.91
2022-08-24T12:29:48.294Z,96161.06
2022-08-24T12:35:01.491Z,96145.91
2022-08-24T12:40:08.761Z,96143.19
2022-08-24T12:45:17.159Z,96140.00
2022-08-24T12:50:33.930Z,96133.53
2022-08-24T12:56:04.100Z,96133.66
2022-08-24T13:01:07.173Z,96137.69
2022-08-24T13:06:16.599Z,96131.47
2022-08-24T13:11:24.365Z,96118.88
2022-08-24T13:16:44.986Z,96130.50
2022-08-24T13:21:57.271Z,96113.31
2022-08-24T13:27:18.820Z,96127.75
2022-08-24T13:32:35.311Z,96114.34
2022-08-24T13:37:38.492Z,96115.72
2022-08-24T13:42:46.388Z,96115.00
2022-08-24T13:48:04.346Z,96112.75
2022-08-24T13:53:35.042Z,96113.56
2022-08-24T13:58:56.119Z,96109.44
2022-08-24T14:04:26.260Z,96099.84
2022-08-24T14:10:01.913Z,96109.38
2022-08-24T14:15:21.757Z,96106.66
2022-08-24T14:20:41.561Z,96100.88
2022-08-24T14:25:44.757Z,96105.34
2022-08-24T14:30:47.126Z,96107.47
2022-08-24T14:36:14.881Z,96104.41
2022-08-24T14:41:34.562Z,96096.47
2022-08-24T14:47:04.525Z,96097.28
2022-08-24T14:52:26.587Z,96095.78
2022-08-24T14:57:56.754Z,96101.66
2022-08-24T15:03:15.165Z,96092.16
2022-08-24T15:08:33.121Z,96094.22
2022-08-24T15:14:05.348Z,96095.22
2022-08-24T15:19:27.390Z,96090.91
2022-08-24T15:24:52.619Z,96082.22
2022-08-24T15:29:56.043Z,96080.22
2022-08-24T15:34:58.437Z,96080.53
2022-08-24T15:40:01.777Z,96076.72
2022-08-24T15:45:04.709Z,96085.16
2022-08-24T15:50:19.243Z,96084.38
2022-08-24T15:55:26.788Z,96078.75
2022-08-24T16:00:55.517Z,96070.09
2022-08-24T16:06:18.139Z,96070.38
2022-08-24T16:11:27.983Z,96071.44
2022-08-24T16:16:34.483Z,96068.91
2022-08-24T16:21:51.251Z,96066.63
2022-08-24T16:27:05.520Z,96076.31
2022-08-24T16:32:23.096Z,96081.97
2022-08-24T16:37:32.316Z,96079.88
2022-08-24T16:42:34.988Z,96076.81
2022-08-24T16:47:36.995Z,96074.97
2022-08-24T16:52:38.908Z,96074.47
2022-08-24T16:57:40.587Z,96073.97
2022-08-24T17:02:42.867Z,96068.84
2022-08-24T17:07:45.085Z,96076.81
2022-08-24T17:12:47.114Z,96073.22
2022-08-24T17:18:00.064Z,96073.22
2022-08-24T17:23:02.136Z,96075.00
2022-08-24T17:28:04.538Z,96068.88
2022-08-24T17:33:06.219Z,96075.50
2022-08-24T17:38:08.704Z,96072.97
2022-08-24T17:43:10.592Z,96079.31
2022-08-24T17:48:20.881Z,96079.28
2022-08-24T17:53:22.568Z,96085.84
2022-08-24T17:58:24.368Z,96076.28
2022-08-24T18:03:26.175Z,96077.97
2022-08-24T18:08:27.790Z,96078.38
2022-08-24T18:13:29.624Z,96084.66
2022-08-24T18:18:31.327Z,96090.16
2022-08-24T18:23:33.120Z,96087.94
2022-08-24T18:28:36.916Z,96098.53
2022-08-24T18:33:38.581Z,96094.31
2022-08-24T18:38:40.776Z,96101.31
2022-08-24T18:43:42.670Z,96104.19
2022-08-24T18:48:44.228Z,96114.72
2022-08-24T18:53:46.391Z,96117.13
2022-08-24T18:58:48.254Z,96127.88
2022-08-24T19:03:50.465Z,96125.16
2022-08-24T19:08:52.202Z,96123.16
2022-08-24T19:13:53.856Z,96134.69
2022-08-24T19:18:55.609Z,96133.75
2022-08-24T19:23:58.530Z,96136.38
2022-08-24T19:29:00.394Z,96139.00
2022-08-24T19:34:03.446Z,96127.88
2022-08-24T19:39:05.693Z,96130.50
2022-08-24T19:44:27.562Z,96127.81
2022-08-24T19:49:29.891Z,96136.00
2022-08-24T19:54:35.749Z,96132.50
2022-08-24T19:59:43.832Z,96127.78
2022-08-24T20:04:45.617Z,96140.00
2022-08-24T20:09:47.210Z,96145.47
2022-08-24T20:14:49.087Z,96139.47
2022-08-24T20:19:51.496Z,96144.66
2022-08-24T20:24:53.562Z,96154.94
2022-08-24T20:29:56.034Z,96145.69
2022-08-24T20:34:58.064Z,96144.53
2022-08-24T20:40:00.629Z,96154.03
2022-08-24T20:45:02.525Z,96151.59
2022-08-24T20:50:04.727Z,96151.16
2022-08-24T20:55:06.848Z,96159.59
2022-08-24T21:00:11.000Z,96164.25
2022-08-24T21:05:13.191Z,96155.47
2022-08-24T21:10:19.679Z,96153.00
2022-08-24T21:15:23.591Z,96147.75
2022-08-24T21:20:25.750Z,96145.81
2022-08-24T21:25:27.578Z,96150.50
2022-08-24T21:30:30.407Z,96148.34
2022-08-24T21:35:32.639Z,96146.19
2022-08-24T21:40:35.628Z,96147.59
2022-08-24T21:45:37.452Z,96153.31
2022-08-24T21:50:39.095Z,96146.34
2022-08-24T21:55:41.912Z,96140.16
2022-08-24T22:00:44.081Z,96144.66
2022-08-24T22:05:45.856Z,96135.69
2022-08-24T22:10:48.956Z,96136.63
2022-08-24T22:15:50.747Z,96130.44
2022-08-24T22:20:52.619Z,96129.84
2022-08-24T22:25:54.566Z,96123.63
2022-08-24T22:30:56.804Z,96130.94
2022-08-24T22:35:58.627Z,96123.19
2022-08-24T22:41:00.207Z,96124.28
2022-08-24T22:46:01.846Z,96117.34
2022-08-24T22:51:08.224Z,96117.19
2022-08-24T22:56:27.674Z,96113.47
2022-08-24T23:01:37.415Z,96109.78
2022-08-24T23:06:39.389Z,96118.78
2022-08-24T23:11:41.349Z,96109.75
2022-08-24T23:16:45.092Z,96103.56
2022-08-24T23:21:46.926Z,96100.63
2022-08-24T23:26:49.445Z,96108.34
2022-08-24T23:31:53.685Z,96099.41
2022-08-24T23:36:55.789Z,96094.44
2022-08-24T23:41:57.926Z,96100.31
2022-08-24T23:47:00.500Z,96094.13
2022-08-24T23:52:02.313Z,96086.88
2022-08-24T23:57:09.053Z,96088.25
